Time;durP1;ratioP1;P1;durP2;ratioP2;P2;SDS_P1;SDS_P2;PMS_P1;PMS_P2;Temp;Humidity;BMP_temperature;BMP_pressure;BME280_temperature;BME280_humidity;BME280_pressure;Samples;Min_cycle;Max_cycle;Signal;HPM_P1;HPM_P2
2022/04/04 00:00:01;;;;;;;5.37;4.07;;;;;;;3.59;89.83;94808.28;5053640;28;20635;-61
2022/04/04 00:02:26;;;;;;;4.23;3.73;;;;;;;3.56;90.73;94801.72;5052296;28;20201;-58
2022/04/04 00:04:52;;;;;;;6.53;4.87;;;;;;;3.56;90.27;94801.72;5053643;28;20174;-61
2022/04/04 00:07:17;;;;;;;4.40;4.00;;;;;;;3.42;90.56;94802.47;5053997;28;20717;-58
2022/04/04 00:09:43;;;;;;;4.83;3.77;;;;;;;3.50;90.19;94788.66;5052156;28;20634;-63
2022/04/04 00:12:09;;;;;;;4.10;3.67;;;;;;;3.51;90.94;94797.84;5053577;28;20209;-62
2022/04/04 00:14:35;;;;;;;4.10;3.70;;;;;;;3.46;91.42;94787.22;5035481;28;20206;-63
2022/04/04 00:17:01;;;;;;;5.53;3.77;;;;;;;3.56;91.58;94784.13;5053602;28;20223;-61
2022/04/04 00:19:27;;;;;;;4.93;3.40;;;;;;;3.42;89.63;94806.69;5053396;28;20579;-62
2022/04/04 00:21:53;;;;;;;4.97;3.77;;;;;;;3.48;90.09;94806.34;5053605;28;20270;-62
2022/04/04 00:24:18;;;;;;;4.23;3.80;;;;;;;3.52;90.60;94796.94;5053242;28;20561;-60
2022/04/04 00:26:44;;;;;;;3.83;3.40;;;;;;;3.28;90.55;94797.38;5052152;28;20206;-62
2022/04/04 00:29:09;;;;;;;5.17;3.87;;;;;;;3.30;91.27;94782.22;5053174;28;20176;-61
2022/04/04 00:31:35;;;;;;;4.93;3.70;;;;;;;3.43;92.41;94771.41;5053169;28;20202;-62
2022/04/04 00:34:01;;;;;;;3.87;3.23;;;;;;;3.24;91.04;94782.56;5053023;28;20166;-63
2022/04/04 00:36:26;;;;;;;4.00;3.23;;;;;;;3.23;91.91;94771.69;5053234;28;20200;-63
2022/04/04 00:38:52;;;;;;;4.00;3.53;;;;;;;3.18;92.17;94773.66;5051488;28;20638;-60
2022/04/04 00:41:17;;;;;;;5.20;3.50;;;;;;;3.12;92.63;94758.13;5052961;28;20209;-62
2022/04/04 00:43:44;;;;;;;4.00;3.57;;;;;;;3.17;93.27;94751.94;5052877;28;20174;-61
2022/04/04 00:46:10;;;;;;;3.57;3.10;;;;;;;3.31;93.17;94764.56;5052673;28;20220;-61
2022/04/04 00:48:35;;;;;;;3.40;3.10;;;;;;;3.24;93.07;94752.41;5052624;28;20181;-62
2022/04/04 00:51:02;;;;;;;3.53;3.10;;;;;;;3.37;93.96;94759.19;5052698;28;20205;-59
2022/04/04 00:53:30;;;;;;;5.90;3.93;;;;;;;3.38;92.27;94770.88;5052500;28;20600;-60
2022/04/04 00:55:55;;;;;;;5.10;3.27;;;;;;;3.29;93.00;94775.59;5052745;28;20200;-62
2022/04/04 00:58:22;;;;;;;3.33;2.83;;;;;;;3.25;93.58;94747.31;5052412;28;20208;-62
2022/04/04 01:00:49;;;;;;;3.57;3.27;;;;;;;3.37;94.47;94749.13;5057953;23;20228;-61
2022/04/04 01:03:15;;;;;;;3.87;3.53;;;;;;;3.32;94.36;94752.81;5052301;28;20581;-63
2022/04/04 01:05:44;;;;;;;4.23;3.33;;;;;;;3.29;93.46;94756.28;5052898;28;20213;-62
2022/04/04 01:08:15;;;;;;;4.73;3.50;;;;;;;3.30;94.37;94749.56;5052194;28;20186;-63
2022/04/04 01:10:42;;;;;;;4.80;3.63;;;;;;;3.27;94.82;94748.03;5052820;28;20273;-59
2022/04/04 01:13:10;;;;;;;4.23;3.70;;;;;;;3.21;93.75;94747.59;5051570;28;20175;-60
2022/04/04 01:15:36;;;;;;;4.63;3.80;;;;;;;3.17;94.50;94738.59;5051133;28;20292;-63
2022/04/04 01:18:06;;;;;;;4.00;3.60;;;;;;;3.21;94.37;94735.81;5052062;28;20351;-60
2022/04/04 01:20:32;;;;;;;4.70;3.53;;;;;;;3.18;93.01;94762.81;5050927;28;20205;-58
2022/04/04 01:22:58;;;;;;;4.60;3.60;;;;;;;3.12;93.57;94743.88;5052156;28;20177;-64
2022/04/04 01:25:29;;;;;;;3.57;3.10;;;;;;;3.05;93.23;94737.53;5051878;28;20205;-62
2022/04/04 01:27:56;;;;;;;3.50;3.03;;;;;;;3.10;93.80;94739.81;5050984;28;20217;-61
2022/04/04 01:30:25;;;;;;;5.43;3.77;;;;;;;3.07;93.52;94738.28;5052442;28;20209;-62
2022/04/04 01:32:51;;;;;;;4.87;3.17;;;;;;;3.25;93.05;94749.03;5052321;28;20637;-61
2022/04/04 01:35:18;;;;;;;4.43;3.63;;;;;;;3.18;93.12;94758.59;5052344;28;20212;-58
2022/04/04 01:37:43;;;;;;;6.57;3.37;;;;;;;3.16;92.60;94767.09;5050513;28;20258;-62
2022/04/04 01:40:10;;;;;;;5.03;3.67;;;;;;;3.11;92.07;94754.78;5052213;28;20190;-63
2022/04/04 01:42:37;;;;;;;3.90;3.17;;;;;;;3.17;92.79;94751.94;5051734;28;20180;-60
2022/04/04 01:45:07;;;;;;;5.27;3.60;;;;;;;3.12;92.71;94758.94;5050642;28;20182;-63
2022/04/04 01:47:33;;;;;;;4.37;3.40;;;;;;;3.01;92.51;94757.91;5051788;28;20653;-62
2022/04/04 01:49:59;;;;;;;4.67;3.40;;;;;;;2.98;93.06;94760.56;5052021;28;20678;-62
2022/04/04 01:52:25;;;;;;;4.70;3.70;;;;;;;2.96;92.61;94770.69;5051791;28;20203;-61
2022/04/04 01:54:53;;;;;;;3.17;2.83;;;;;;;3.03;92.89;94761.13;5052155;28;20631;-59
2022/04/04 01:57:19;;;;;;;4.80;3.43;;;;;;;2.91;91.90;94760.06;5051559;28;20255;-62
2022/04/04 01:59:44;;;;;;;3.90;3.00;;;;;;;2.98;92.38;94760.56;5051600;28;20631;-59
2022/04/04 02:02:10;;;;;;;5.00;3.73;;;;;;;2.99;92.00;94765.50;5050345;28;20204;-60
2022/04/04 02:04:36;;;;;;;4.03;3.63;;;;;;;3.01;92.90;94756.16;5050573;28;20247;-59
2022/04/04 02:07:02;;;;;;;3.47;3.03;;;;;;;3.05;93.21;94769.41;5040363;23;20613;-62
2022/04/04 02:09:28;;;;;;;3.53;3.00;;;;;;;3.06;92.33;94766.78;5031793;28;20598;-62
2022/04/04 02:11:53;;;;;;;4.03;3.63;;;;;;;3.01;92.87;94761.19;5031712;28;20244;-64
2022/04/04 02:14:19;;;;;;;6.13;3.30;;;;;;;2.97;92.46;94759.75;5031613;28;20197;-63
2022/04/04 02:16:45;;;;;;;3.30;3.00;;;;;;;3.06;92.91;94759.25;5032099;28;20573;-62
2022/04/04 02:19:10;;;;;;;3.20;2.90;;;;;;;2.95;92.35;94751.47;5031722;28;20193;-60
2022/04/04 02:21:37;;;;;;;4.43;3.43;;;;;;;2.90;92.04;94748.44;5032142;28;20202;-60
2022/04/04 02:24:04;;;;;;;8.17;5.47;;;;;;;3.02;92.83;94742.75;5031238;28;20175;-62
2022/04/04 02:26:29;;;;;;;5.23;3.03;;;;;;;3.06;91.77;94765.97;5035115;28;20206;-63
2022/04/04 02:28:55;;;;;;;4.17;3.77;;;;;;;3.10;92.39;94760.72;5035375;28;20186;-62
2022/04/04 02:31:20;;;;;;;4.17;3.17;;;;;;;3.11;92.53;94759.03;5050799;28;20255;-62
2022/04/04 02:33:46;;;;;;;4.13;3.03;;;;;;;3.03;91.12;94777.00;5035533;28;20185;-61
2022/04/04 02:36:11;;;;;;;3.10;2.80;;;;;;;3.11;90.86;94782.41;5035144;28;20210;-62
2022/04/04 02:38:37;;;;;;;5.70;3.63;;;;;;;3.19;90.71;94764.44;5035148;28;20764;-60
2022/04/04 02:41:03;;;;;;;4.20;2.70;;;;;;;3.11;91.46;94747.25;5035426;28;20208;-61
2022/04/04 02:43:28;;;;;;;3.50;3.20;;;;;;;3.23;90.67;94770.91;5035126;28;20559;-61
2022/04/04 02:45:54;;;;;;;3.37;3.07;;;;;;;3.05;90.85;94767.66;5033935;28;20288;-63
2022/04/04 02:48:20;;;;;;;4.37;3.00;;;;;;;3.02;91.25;94759.50;5034893;28;20183;-63
2022/04/04 02:50:46;;;;;;;5.90;3.73;;;;;;;3.03;90.89;94759.41;5035248;28;20213;-58
2022/04/04 02:53:19;;;;;;;3.77;3.47;;;;;;;3.03;90.83;94758.63;5035083;28;20331;-59
2022/04/04 02:58:29;;;;;;;5.77;3.80;;;;;;;2.85;90.88;94750.34;5034777;28;20263;-59
2022/04/04 03:00:54;;;;;;;3.97;3.03;;;;;;;2.96;91.70;94738.06;5033640;28;20694;-61
2022/04/04 03:03:20;;;;;;;3.77;3.27;;;;;;;2.92;90.95;94743.31;5034977;28;20222;-62
2022/04/04 03:05:46;;;;;;;4.27;3.60;;;;;;;2.97;91.79;94743.88;5034536;28;20695;-60
2022/04/04 03:08:12;;;;;;;5.10;3.80;;;;;;;2.92;91.09;94739.09;5034402;28;20265;-58
2022/04/04 03:10:38;;;;;;;4.53;4.00;;;;;;;2.88;92.61;94730.13;5034698;28;20309;-61
2022/04/04 03:13:05;;;;;;;4.87;3.87;;;;;;;3.04;92.19;94735.94;5033071;28;20275;-57
2022/04/04 03:15:31;;;;;;;5.37;3.90;;;;;;;3.00;91.30;94747.03;5033636;28;20210;-62
2022/04/04 03:17:57;;;;;;;5.33;4.13;;;;;;;3.18;92.01;94747.72;5034293;28;20212;-63
2022/04/04 03:20:24;;;;;;;5.13;3.77;;;;;;;3.03;91.41;94751.09;5034583;28;20209;-64
2022/04/04 03:22:54;;;;;;;6.77;4.07;;;;;;;2.93;91.42;94747.47;5034310;28;20205;-63
2022/04/04 03:25:19;;;;;;;6.43;4.67;;;;;;;2.96;91.40;94747.28;5034076;28;20292;-61
2022/04/04 03:27:46;;;;;;;6.37;4.47;;;;;;;3.04;91.16;94761.03;5034213;28;20170;-62
2022/04/04 03:30:14;;;;;;;5.37;4.33;;;;;;;2.96;92.17;94743.06;5034445;28;20193;-61
2022/04/04 03:32:40;;;;;;;4.83;4.20;;;;;;;3.10;91.30;94759.91;5032988;28;20568;-63
2022/04/04 03:35:06;;;;;;;4.93;4.07;;;;;;;2.88;91.81;94755.22;5032828;28;20186;-62
2022/04/04 03:37:34;;;;;;;5.17;4.10;;;;;;;2.70;92.88;94735.31;5033492;28;20212;-65
2022/04/04 03:39:59;;;;;;;5.37;4.33;;;;;;;2.84;91.93;94750.44;5032820;28;20178;-63
2022/04/04 03:42:25;;;;;;;7.20;4.40;;;;;;;2.71;92.95;94737.72;5034164;28;20182;-61
2022/04/04 03:44:51;;;;;;;4.63;4.23;;;;;;;2.71;93.06;94747.78;5032960;28;20186;-63
2022/04/04 03:47:16;;;;;;;5.97;4.50;;;;;;;2.62;93.86;94727.38;5033861;28;20202;-62
2022/04/04 03:49:42;;;;;;;5.63;4.57;;;;;;;2.89;93.22;94738.47;5032618;28;20185;-61
2022/04/04 03:52:08;;;;;;;5.77;4.43;;;;;;;2.77;93.15;94742.44;5032580;28;20219;-61
2022/04/04 03:54:35;;;;;;;5.87;4.27;;;;;;;2.70;93.82;94745.34;5033975;28;20592;-58
2022/04/04 03:57:01;;;;;;;5.90;4.33;;;;;;;2.78;93.18;94751.59;5033583;28;20211;-59
2022/04/04 03:59:26;;;;;;;6.80;4.80;;;;;;;2.63;93.72;94754.88;5033908;28;20237;-63
2022/04/04 04:01:52;;;;;;;5.17;4.33;;;;;;;2.63;92.84;94761.63;5034020;28;20337;-62
2022/04/04 04:04:17;;;;;;;7.77;5.20;;;;;;;2.67;92.42;94763.88;5033609;28;20193;-59
2022/04/04 04:06:45;;;;;;;5.63;4.40;;;;;;;2.73;93.07;94767.78;5033330;28;20281;-60
2022/04/04 04:09:12;;;;;;;6.43;4.97;;;;;;;2.74;92.92;94782.75;5033588;28;20175;-62
2022/04/04 04:11:37;;;;;;;5.60;4.63;;;;;;;2.65;92.53;94778.22;5034120;28;20209;-61
2022/04/04 04:14:03;;;;;;;4.90;4.33;;;;;;;2.71;93.28;94777.88;5033487;28;20188;-60
2022/04/04 04:16:29;;;;;;;6.73;5.13;;;;;;;2.87;92.33;94803.78;5033569;28;20208;-60
2022/04/04 04:18:55;;;;;;;6.90;4.97;;;;;;;2.73;92.42;94793.66;5033349;28;20226;-64
2022/04/04 04:21:21;;;;;;;7.10;5.27;;;;;;;2.78;93.16;94799.28;5033579;28;20602;-60
2022/04/04 04:23:46;;;;;;;8.43;6.00;;;;;;;2.81;93.62;94800.81;5015463;28;20198;-59
2022/04/04 04:26:13;;;;;;;6.97;5.43;;;;;;;2.97;92.94;94806.66;5033653;28;20206;-62
2022/04/04 04:28:40;;;;;;;7.13;5.73;;;;;;;3.06;92.14;94817.00;5033038;28;20636;-62
2022/04/04 04:31:06;;;;;;;9.87;5.77;;;;;;;3.17;91.19;94834.03;5032890;28;20210;-68
2022/04/04 04:33:32;;;;;;;7.27;5.70;;;;;;;3.11;91.87;94824.31;5033159;28;20659;-62
2022/04/04 04:35:58;;;;;;;9.30;5.70;;;;;;;3.08;91.86;94837.00;5033501;28;20241;-60
2022/04/04 04:38:24;;;;;;;5.90;4.53;;;;;;;3.06;91.47;94842.13;5032848;28;20198;-62
2022/04/04 04:40:50;;;;;;;5.90;4.77;;;;;;;2.95;90.59;94853.63;5033326;28;20213;-60
2022/04/04 04:43:15;;;;;;;5.97;4.87;;;;;;;2.92;91.65;94847.06;5032912;28;20193;-62
2022/04/04 04:45:41;;;;;;;7.63;5.20;;;;;;;2.97;91.73;94845.09;5032795;28;20256;-62
2022/04/04 04:48:07;;;;;;;9.37;5.57;;;;;;;2.99;91.30;94845.03;5031876;28;20178;-60
2022/04/04 04:50:34;;;;;;;5.97;5.37;;;;;;;2.86;91.20;94847.38;5033091;28;20204;-62
2022/04/04 04:52:59;;;;;;;5.53;4.87;;;;;;;2.92;92.00;94838.69;5033122;28;20189;-59
2022/04/04 04:55:26;;;;;;;5.70;4.77;;;;;;;2.91;92.12;94847.94;5032925;28;20567;-59
2022/04/04 04:57:53;;;;;;;7.80;5.23;;;;;;;2.78;92.15;94833.59;5032633;28;20209;-65
2022/04/04 05:00:22;;;;;;;6.67;5.03;;;;;;;2.83;92.43;94832.47;5032676;28;20758;-63
2022/04/04 05:03:24;;;;;;;9.67;6.20;;;;;;;2.84;91.94;94849.16;5032969;28;20221;-63
2022/04/04 05:05:33;;;;;;;8.07;5.47;;;;;;;2.92;91.46;94843.72;5032430;28;20226;-61
2022/04/04 05:07:59;;;;;;;7.23;5.63;;;;;;;2.94;91.71;94840.25;5032438;28;20170;-61
2022/04/04 05:10:25;;;;;;;7.53;5.80;;;;;;;2.88;92.77;94832.22;5032214;28;20695;-62
2022/04/04 05:12:50;;;;;;;6.77;5.40;;;;;;;2.86;92.16;94832.31;5032672;28;20185;-59
2022/04/04 05:15:16;;;;;;;8.87;6.00;;;;;;;2.85;92.56;94830.69;5032544;28;20264;-62
2022/04/04 05:17:42;;;;;;;11.07;6.07;;;;;;;2.91;93.19;94824.56;5031035;28;20288;-64
2022/04/04 05:20:08;;;;;;;8.53;5.90;;;;;;;3.03;93.15;94837.25;5032239;28;20261;-62
2022/04/04 05:22:35;;;;;;;9.47;6.20;;;;;;;3.09;92.32;94834.41;5030960;28;20178;-62
2022/04/04 05:25:00;;;;;;;10.57;6.07;;;;;;;3.10;91.27;94860.34;5032347;28;20643;-61
2022/04/04 05:27:26;;;;;;;9.13;5.93;;;;;;;3.39;91.72;94862.91;5030590;28;20189;-63
2022/04/04 05:29:51;;;;;;;11.07;6.17;;;;;;;3.57;90.64;94877.91;5032464;28;20265;-61
2022/04/04 05:32:17;;;;;;;9.27;6.60;;;;;;;3.31;91.16;94880.09;5032194;28;20189;-61
2022/04/04 05:34:42;;;;;;;8.73;6.83;;;;;;;3.26;92.03;94879.56;5031994;28;20181;-58
2022/04/04 05:37:08;;;;;;;7.47;6.03;;;;;;;3.20;92.19;94867.31;5031850;28;20263;-62
2022/04/04 05:39:33;;;;;;;11.37;6.70;;;;;;;3.36;92.37;94868.13;5031932;28;20257;-59
2022/04/04 05:41:58;;;;;;;8.73;6.63;;;;;;;3.56;91.05;94888.84;5032001;28;20294;-62
2022/04/04 05:44:25;;;;;;;9.33;7.13;;;;;;;3.76;91.15;94886.06;5031757;28;20228;-61
2022/04/04 05:46:50;;;;;;;12.43;6.70;;;;;;;3.78;91.53;94894.31;5030941;28;20214;-58
2022/04/04 05:49:16;;;;;;;9.70;6.73;;;;;;;3.85;91.81;94898.97;5031975;28;20566;-59
2022/04/04 05:51:42;;;;;;;8.00;6.53;;;;;;;4.14;90.88;94902.38;5032555;28;20198;-61
2022/04/04 05:54:09;;;;;;;10.40;6.60;;;;;;;4.15;91.57;94898.97;5031639;28;20566;-61
2022/04/04 05:56:37;;;;;;;6.23;5.53;;;;;;;4.10;89.57;94941.97;5030920;28;20210;-62
2022/04/04 05:59:03;;;;;;;8.47;5.97;;;;;;;4.28;91.10;94909.97;5031461;28;20194;-63
2022/04/04 06:01:35;;;;;;;8.17;6.10;;;;;;;4.41;91.46;94920.94;5032084;28;20213;-58
2022/04/04 06:04:02;;;;;;;8.10;5.77;;;;;;;4.48;89.47;94944.88;5031848;28;20197;-63
2022/04/04 06:06:28;;;;;;;6.97;5.60;;;;;;;4.53;89.44;94942.91;5030307;28;20218;-61
2022/04/04 06:08:53;;;;;;;8.03;5.67;;;;;;;4.71;88.34;94974.59;5031727;28;20186;-60
2022/04/04 06:11:19;;;;;;;9.70;5.90;;;;;;;4.88;88.27;94966.88;5032050;28;20267;-63
2022/04/04 06:13:44;;;;;;;8.10;5.37;;;;;;;4.70;87.73;94962.91;5031762;28;20181;-63
2022/04/04 06:16:10;;;;;;;7.87;5.90;;;;;;;4.35;87.40;94968.28;5032094;28;20198;-62
2022/04/04 06:18:35;;;;;;;8.67;5.87;;;;;;;4.16;87.63;94946.66;5031833;28;20211;-62
2022/04/04 06:21:02;;;;;;;9.70;6.37;;;;;;;4.13;88.92;94934.25;5032089;28;20216;-59
2022/04/04 06:23:28;;;;;;;10.67;5.90;;;;;;;4.24;88.58;94928.66;5031572;28;20179;-63
2022/04/04 06:25:54;;;;;;;9.37;6.23;;;;;;;4.38;88.58;94933.72;5031900;28;20207;-62
2022/04/04 06:28:19;;;;;;;6.67;5.90;;;;;;;4.42;86.48;94955.28;5031343;28;20265;-63
2022/04/04 06:30:45;;;;;;;7.70;5.50;;;;;;;4.51;87.15;94934.63;5030160;28;20244;-63
2022/04/04 06:33:11;;;;;;;10.73;6.07;;;;;;;4.29;86.51;94961.91;5031473;28;20204;-63
2022/04/04 06:35:37;;;;;;;6.83;5.77;;;;;;;4.37;87.60;94954.72;5031731;28;20293;-59
2022/04/04 06:38:02;;;;;;;7.83;6.20;;;;;;;4.17;87.88;94930.69;5031387;28;20296;-63
2022/04/04 06:40:29;;;;;;;9.03;6.70;;;;;;;4.21;88.86;94923.78;5031607;28;20206;-60
2022/04/04 06:42:58;;;;;;;9.77;6.97;;;;;;;4.43;86.89;94959.41;5030075;28;20178;-65
2022/04/04 06:45:24;;;;;;;10.00;5.47;;;;;;;4.39;86.43;94973.06;5031657;28;20284;-59
2022/04/04 06:47:49;;;;;;;9.57;6.80;;;;;;;4.13;87.32;94956.09;5031381;28;20732;-63
2022/04/04 06:50:15;;;;;;;8.07;6.63;;;;;;;4.26;87.81;94942.75;5031422;28;20258;-62
2022/04/04 06:52:41;;;;;;;7.67;6.77;;;;;;;4.75;87.78;94955.88;5029975;28;20182;-60
2022/04/04 06:55:07;;;;;;;8.97;6.37;;;;;;;4.67;86.58;94968.09;5031471;28;20662;-62
2022/04/04 06:57:33;;;;;;;11.97;7.00;;;;;;;4.68;85.86;94982.31;5031148;28;20737;-62
2022/04/04 06:59:59;;;;;;;13.23;6.87;;;;;;;4.66;86.24;94971.53;5046487;28;20193;-59
2022/04/04 07:02:27;;;;;;;10.43;6.57;;;;;;;4.82;86.99;94969.75;5029876;28;20179;-63
2022/04/04 07:04:52;;;;;;;9.63;6.97;;;;;;;5.05;87.00;94959.16;5031155;28;20183;-61
2022/04/04 07:07:20;;;;;;;9.60;7.00;;;;;;;4.95;86.73;94972.38;5031400;28;20207;-64
2022/04/04 07:09:46;;;;;;;9.30;6.17;;;;;;;5.56;86.07;94975.41;5031277;28;20241;-62
2022/04/04 07:12:11;;;;;;;8.80;7.10;;;;;;;6.01;84.99;95012.22;5033804;28;20212;-63
2022/04/04 07:14:37;;;;;;;10.77;7.03;;;;;;;5.88;85.24;94997.00;5034599;28;20180;-65
2022/04/04 07:17:03;;;;;;;12.27;7.90;;;;;;;6.14;84.31;95023.16;5034630;28;20204;-63
2022/04/04 07:19:33;;;;;;;13.77;6.90;;;;;;;6.02;83.25;95023.13;5034316;28;20237;-59
2022/04/04 07:22:02;;;;;;;9.43;7.07;;;;;;;5.92;84.06;95015.28;5034335;28;20207;-60
2022/04/04 07:24:28;;;;;;;14.03;8.57;;;;;;;6.23;84.12;95007.47;5034334;28;20176;-64
2022/04/04 07:26:54;;;;;;;9.40;7.80;;;;;;;6.53;83.50;95025.75;5034596;28;20216;-62
2022/04/04 07:29:20;;;;;;;8.33;7.07;;;;;;;6.79;83.48;95022.38;5034349;28;20185;-63
2022/04/04 07:31:45;;;;;;;12.90;7.57;;;;;;;6.60;83.47;95019.41;5034538;28;20703;-63
2022/04/04 07:34:11;;;;;;;11.27;8.17;;;;;;;6.53;84.17;95004.72;5034419;28;20188;-62
2022/04/04 07:36:38;;;;;;;11.23;8.73;;;;;;;6.81;83.30;95029.84;5031178;28;20213;-62
2022/04/04 07:39:04;;;;;;;11.03;7.13;;;;;;;6.44;81.77;95061.69;5034127;28;20209;-64
2022/04/04 07:41:30;;;;;;;11.37;7.40;;;;;;;6.09;81.12;95057.97;5033166;28;20251;-65
2022/04/04 07:43:55;;;;;;;9.03;7.23;;;;;;;5.95;81.63;95042.88;5032849;28;20192;-63
2022/04/04 07:46:21;;;;;;;11.87;7.93;;;;;;;6.43;82.37;95033.97;5034463;28;20209;-63
2022/04/04 07:48:47;;;;;;;10.00;7.83;;;;;;;6.84;80.19;95077.66;5034031;28;20176;-62
2022/04/04 07:51:13;;;;;;;12.70;7.30;;;;;;;7.29;80.50;95073.91;5034360;28;20336;-59
2022/04/04 07:53:38;;;;;;;10.20;6.97;;;;;;;7.29;79.17;95081.50;5033689;28;20213;-59
2022/04/04 07:56:04;;;;;;;8.80;6.83;;;;;;;7.04;78.68;95099.97;5034039;28;20573;-61
2022/04/04 07:58:30;;;;;;;8.03;6.50;;;;;;;7.34;76.95;95128.31;5033805;28;20209;-61
2022/04/04 08:00:55;;;;;;;13.23;6.97;;;;;;;6.94;72.75;95118.31;5033631;28;20577;-63
2022/04/04 08:03:24;;;;;;;12.20;7.17;;;;;;;7.25;70.93;95143.28;5033662;28;20224;-64
2022/04/04 08:05:50;;;;;;;9.70;7.00;;;;;;;7.25;70.60;95148.34;5055931;23;20708;-62
2022/04/04 08:08:15;;;;;;;9.27;6.37;;;;;;;7.14;69.36;95153.25;5033630;28;20178;-60
2022/04/04 08:10:41;;;;;;;11.07;7.47;;;;;;;7.44;69.25;95156.34;5034100;28;20289;-62
2022/04/04 08:13:07;;;;;;;11.67;7.17;;;;;;;7.19;69.43;95121.72;5033805;28;20185;-62
2022/04/04 08:15:33;;;;;;;9.27;6.63;;;;;;;7.65;71.38;95101.84;5034042;28;20264;-61
2022/04/04 08:17:59;;;;;;;10.57;6.73;;;;;;;7.80;70.36;95093.22;5033597;28;20252;-60
2022/04/04 08:20:24;;;;;;;7.93;6.80;;;;;;;8.07;67.97;95156.38;5032342;28;20234;-62
2022/04/04 08:22:50;;;;;;;8.53;6.87;;;;;;;8.22;67.24;95147.78;5033353;28;20225;-62
2022/04/04 08:25:17;;;;;;;10.83;6.63;;;;;;;8.12;68.39;95104.53;5032239;28;20202;-63
2022/04/04 08:27:43;;;;;;;10.07;6.23;;;;;;;7.70;66.86;95131.88;5033182;28;20243;-63
2022/04/04 08:30:11;;;;;;;7.80;5.93;;;;;;;8.01;66.41;95141.59;5033591;28;20191;-62
2022/04/04 08:32:37;;;;;;;8.50;6.20;;;;;;;8.05;66.01;95123.59;5075729;23;20225;-59
2022/04/04 08:35:07;;;;;;;9.67;7.07;;;;;;;8.38;65.82;95118.78;5073086;28;20195;-62
2022/04/04 08:37:35;;;;;;;7.13;6.03;;;;;;;8.45;66.55;95098.91;5073047;28;20224;-63
2022/04/04 08:40:01;;;;;;;13.33;6.77;;;;;;;8.25;66.27;95094.41;5072850;28;20189;-63
2022/04/04 08:42:27;;;;;;;8.47;5.83;;;;;;;7.81;65.68;95099.09;5072779;28;20562;-64
2022/04/04 08:44:56;;;;;;;8.03;6.10;;;;;;;7.86;65.94;95102.94;5072797;28;20191;-62
2022/04/04 08:47:23;;;;;;;12.10;6.60;;;;;;;7.29;66.45;95084.03;5072898;28;20184;-64
2022/04/04 08:49:53;;;;;;;10.67;6.60;;;;;;;7.01;67.45;95052.13;5071206;28;20646;-63
2022/04/04 08:52:20;;;;;;;10.00;6.80;;;;;;;7.48;66.91;95052.38;5072664;28;20192;-61
2022/04/04 08:54:46;;;;;;;12.03;6.30;;;;;;;8.09;66.33;95071.84;5072700;28;20179;-62
2022/04/04 08:57:12;;;;;;;9.80;6.67;;;;;;;8.06;65.16;95066.97;5072186;28;20208;-62
2022/04/04 08:59:38;;;;;;;9.23;6.70;;;;;;;8.26;64.88;95081.63;5070963;28;20676;-62
2022/04/04 09:02:04;;;;;;;7.77;5.83;;;;;;;7.97;63.79;95085.31;5072370;28;20205;-61
2022/04/04 09:04:32;;;;;;;9.33;6.63;;;;;;;8.05;62.61;95093.22;5072200;28;20188;-63
2022/04/04 09:06:58;;;;;;;11.90;6.50;;;;;;;8.52;61.60;95074.78;5072082;28;20223;-62
2022/04/04 09:09:37;;;;;;;8.73;6.60;;;;;;;8.75;59.69;95103.56;5070765;28;20181;-63
2022/04/04 09:12:14;;;;;;;9.73;6.40;;;;;;;9.10;59.15;95077.31;5072148;28;20736;-59
2022/04/04 09:14:51;;;;;;;9.70;6.37;;;;;;;9.28;58.26;95101.38;5072234;28;20184;-61
2022/04/04 09:17:18;;;;;;;8.63;6.40;;;;;;;9.83;55.82;95141.28;5072209;28;20263;-59
2022/04/04 09:19:44;;;;;;;12.20;6.67;;;;;;;10.05;57.36;95099.84;5071953;28;20176;-62
2022/04/04 09:22:16;;;;;;;11.57;6.37;;;;;;;10.09;56.21;95135.06;5072054;28;20276;-62
2022/04/04 09:24:48;;;;;;;8.07;6.40;;;;;;;10.45;54.34;95145.94;5072116;28;20174;-60
2022/04/04 09:27:18;;;;;;;9.17;6.93;;;;;;;10.87;55.29;95109.56;5071804;28;20763;-59
2022/04/04 09:29:45;;;;;;;10.23;6.60;;;;;;;11.02;54.51;95113.44;5071826;28;20650;-63
2022/04/04 09:32:14;;;;;;;7.80;6.23;;;;;;;11.06;53.05;95140.25;5072168;28;20238;-61
2022/04/04 09:34:53;;;;;;;10.07;6.13;;;;;;;11.03;52.37;95129.53;5070261;28;20180;-60
2022/04/04 09:37:21;;;;;;;10.33;6.23;;;;;;;10.99;52.95;95108.59;5071638;28;20212;-62
2022/04/04 09:39:49;;;;;;;8.70;6.97;;;;;;;10.88;52.47;95118.81;5071922;28;20200;-63
2022/04/04 09:42:19;;;;;;;14.27;6.47;;;;;;;10.82;52.96;95102.31;5070378;28;20231;-62
2022/04/04 09:45:05;;;;;;;8.50;6.33;;;;;;;10.05;52.33;95108.28;5071618;28;20650;-61
2022/04/04 09:47:57;;;;;;;9.60;7.20;;;;;;;10.71;51.37;95121.84;5071711;28;20165;-63
2022/04/04 09:50:43;;;;;;;8.47;7.10;;;;;;;10.69;52.76;95067.75;5072140;28;20266;-67
2022/04/04 09:53:22;;;;;;;9.50;6.80;;;;;;;10.71;52.32;95086.25;5071553;28;20285;-63
2022/04/04 09:56:00;;;;;;;7.93;6.47;;;;;;;10.49;51.50;95096.47;5071554;28;20229;-63
2022/04/04 09:58:32;;;;;;;7.73;6.40;;;;;;;10.30;51.05;95088.66;5071394;28;20204;-63
2022/04/04 10:01:00;;;;;;;9.87;6.77;;;;;;;10.36;51.53;95083.13;5071863;28;20204;-62
2022/04/04 10:03:27;;;;;;;7.87;6.20;;;;;;;10.93;50.48;95104.00;5071596;28;20246;-62
2022/04/04 10:06:02;;;;;;;8.50;7.00;;;;;;;10.89;49.93;95097.53;5074849;23;20214;-61
2022/04/04 10:08:31;;;;;;;9.53;7.10;;;;;;;11.14;51.24;95071.75;5050848;28;20246;-62
2022/04/04 10:10:56;;;;;;;8.53;5.53;;;;;;;11.39;50.31;95084.13;5051386;28;20670;-60
2022/04/04 10:13:25;;;;;;;10.97;6.60;;;;;;;11.05;51.59;95031.78;5051109;28;20268;-62
2022/04/04 10:15:52;;;;;;;10.03;6.57;;;;;;;11.05;52.57;95003.78;5051275;28;20200;-61
2022/04/04 10:18:18;;;;;;;9.33;6.53;;;;;;;11.37;50.81;95049.56;5051528;28;20209;-62
2022/04/04 10:20:52;;;;;;;11.40;7.07;;;;;;;10.85;51.95;94997.78;5051297;28;20198;-63
2022/04/04 10:23:20;;;;;;;9.50;7.13;;;;;;;10.51;51.84;95010.75;5050150;28;20205;-63
2022/04/04 10:25:49;;;;;;;8.50;6.50;;;;;;;10.27;53.54;94954.22;5051133;28;20193;-64
2022/04/04 10:28:35;;;;;;;9.00;6.63;;;;;;;10.94;51.82;94993.69;5051165;28;20288;-62
2022/04/04 10:31:23;;;;;;;8.63;6.33;;;;;;;11.33;51.96;94990.44;5049700;28;20297;-62
2022/04/04 10:33:50;;;;;;;9.90;6.30;;;;;;;11.42;50.86;95004.16;5051433;28;20177;-63
2022/04/04 10:36:24;;;;;;;7.80;6.50;;;;;;;11.55;51.50;94995.38;5049700;28;20752;-62
2022/04/04 10:38:52;;;;;;;8.23;6.40;;;;;;;11.27;51.35;94996.03;5050922;28;20222;-60
2022/04/04 10:41:23;;;;;;;8.23;5.93;;;;;;;11.34;49.58;95042.16;5050999;28;20209;-62
2022/04/04 10:43:51;;;;;;;8.60;6.37;;;;;;;11.56;49.86;95031.81;5051056;28;20190;-63
2022/04/04 10:46:19;;;;;;;6.93;6.23;;;;;;;10.81;49.86;95005.78;5052558;28;20246;-63
2022/04/04 10:48:50;;;;;;;7.73;5.70;;;;;;;10.90;50.38;95005.03;5053477;28;20186;-63
2022/04/04 10:51:26;;;;;;;9.60;6.33;;;;;;;11.06;50.36;94992.72;5055014;28;20212;-62
2022/04/04 10:53:55;;;;;;;10.50;6.70;;;;;;;10.50;51.36;94969.28;5054595;28;20190;-61
2022/04/04 10:56:27;;;;;;;7.30;5.90;;;;;;;10.71;51.31;94969.28;5055033;28;20745;-61
2022/04/04 10:59:13;;;;;;;7.77;5.90;;;;;;;10.66;50.82;94977.31;5054522;28;20309;-61
2022/04/04 11:01:40;;;;;;;8.83;6.10;;;;;;;10.12;51.23;94961.31;5054840;28;20240;-60
2022/04/04 11:04:06;;;;;;;8.40;6.53;;;;;;;10.26;51.46;94950.88;5054462;28;20652;-61
2022/04/04 11:09:31;;;;;;;7.53;5.70;;;;;;;10.96;51.01;94963.84;5054496;28;20236;-62
2022/04/04 11:12:00;;;;;;;8.17;6.13;;;;;;;11.38;51.27;94945.06;5054642;28;20285;-61
2022/04/04 11:14:28;;;;;;;8.30;6.40;;;;;;;11.94;50.39;94981.06;5054291;28;20189;-61
2022/04/04 11:17:06;;;;;;;10.07;6.43;;;;;;;12.32;48.84;95009.19;5054531;28;20233;-60
2022/04/04 11:20:21;;;;;;;8.40;6.00;;;;;;;12.26;49.25;94996.97;5054196;28;20268;-62
2022/04/04 11:22:51;;;;;;;7.07;5.97;;;;;;;12.62;46.71;95066.97;5053285;28;20251;-62
2022/04/04 11:25:19;;;;;;;7.90;5.40;;;;;;;12.20;47.50;95033.19;5054044;28;20255;-61
2022/04/04 11:27:48;;;;;;;6.67;5.90;;;;;;;12.55;46.65;95053.13;5059989;23;20232;-62
2022/04/04 11:30:24;;;;;;;7.73;5.60;;;;;;;12.21;48.43;94983.00;5053937;28;20193;-63
2022/04/04 11:32:53;;;;;;;6.53;5.80;;;;;;;12.47;47.68;95005.34;5054326;28;20224;-63
2022/04/04 11:35:31;;;;;;;7.87;5.93;;;;;;;12.77;47.31;95001.84;5053956;28;20193;-61
2022/04/04 11:38:06;;;;;;;8.50;5.83;;;;;;;12.80;48.10;94983.75;5054454;28;20213;-62
2022/04/04 11:40:44;;;;;;;7.20;5.57;;;;;;;12.59;49.30;94957.56;5054181;28;20205;-61
2022/04/04 11:43:13;;;;;;;8.67;6.60;;;;;;;13.08;48.78;94954.03;5054188;28;20201;-62
2022/04/04 11:45:41;;;;;;;9.20;6.27;;;;;;;13.02;48.02;94964.78;5053772;28;20194;-60